createdAt,value
2023-01-11T00:00:04.514Z,-14.82
2023-01-11T00:05:41.577Z,-14.75
2023-01-11T00:11:11.935Z,-14.85
2023-01-11T00:16:34.333Z,-14.87
2023-01-11T00:21:56.882Z,-14.92
2023-01-11T00:27:22.446Z,-14.93
2023-01-11T00:32:45.137Z,-14.85
2023-01-11T00:38:33.705Z,-14.89
2023-01-11T00:44:21.060Z,-14.95
2023-01-11T00:49:46.046Z,-15.05
2023-01-11T00:55:08.765Z,-14.91
2023-01-11T01:00:40.728Z,-14.91
2023-01-11T01:06:03.088Z,-14.90
2023-01-11T01:11:25.704Z,-14.83
2023-01-11T01:16:48.567Z,-14.83
2023-01-11T01:22:10.351Z,-14.88
2023-01-11T01:27:32.500Z,-14.91
2023-01-11T01:32:54.196Z,-15.01
2023-01-11T01:38:17.044Z,-14.88
2023-01-11T01:44:23.523Z,-14.95
2023-01-11T01:49:46.445Z,-14.97
2023-01-11T01:55:13.582Z,-14.85
2023-01-11T02:00:35.641Z,-14.73
2023-01-11T02:06:00.099Z,-14.75
2023-01-11T02:11:32.913Z,-14.75
2023-01-11T02:17:00.362Z,-14.71
2023-01-11T02:22:40.476Z,-14.53
2023-01-11T02:28:26.362Z,-14.49
2023-01-11T02:34:06.575Z,-14.56
2023-01-11T02:39:44.621Z,-14.37
2023-01-11T02:46:00.081Z,-14.32
2023-01-11T02:51:40.975Z,-14.34
2023-01-11T02:57:10.512Z,-14.41
2023-01-11T03:02:34.605Z,-14.34
2023-01-11T03:08:11.368Z,-14.20
2023-01-11T03:13:51.962Z,-14.13
2023-01-11T03:19:47.162Z,-14.09
2023-01-11T03:25:25.408Z,-14.28
2023-01-11T03:31:02.161Z,-14.33
2023-01-11T03:36:33.513Z,-14.23
2023-01-11T03:41:59.152Z,-14.03
2023-01-11T03:47:26.575Z,-14.40
2023-01-11T03:52:48.753Z,-14.20
2023-01-11T03:58:11.298Z,-14.22
2023-01-11T04:03:33.545Z,-14.20
2023-01-11T04:09:02.470Z,-14.19
2023-01-11T04:14:39.623Z,-14.03
2023-01-11T04:20:06.807Z,-14.19
2023-01-11T04:25:37.204Z,-14.08
2023-01-11T04:31:26.129Z,-14.23
2023-01-11T04:36:56.400Z,-14.16
2023-01-11T04:42:24.203Z,-14.25
2023-01-11T04:48:09.327Z,-14.11
2023-01-11T04:53:42.218Z,-14.26
2023-01-11T04:59:22.500Z,-14.04
2023-01-11T05:05:05.309Z,-14.16
2023-01-11T05:10:30.321Z,-14.21
2023-01-11T05:15:52.731Z,-14.33
2023-01-11T05:21:19.521Z,-14.45
2023-01-11T05:26:43.691Z,-14.42
2023-01-11T05:32:08.433Z,-14.31
2023-01-11T05:37:30.944Z,-14.30
2023-01-11T05:42:53.084Z,-14.49
2023-01-11T05:48:15.573Z,-14.69
2023-01-11T05:53:37.717Z,-14.72
2023-01-11T05:59:04.575Z,-14.49
2023-01-11T06:04:28.045Z,-14.85
2023-01-11T06:09:49.957Z,-14.74
2023-01-11T06:15:12.473Z,-14.44
2023-01-11T06:20:35.035Z,-14.71
2023-01-11T06:25:57.685Z,-14.74
2023-01-11T06:31:20.962Z,-14.79
2023-01-11T06:36:43.295Z,-14.78
2023-01-11T06:42:08.087Z,-14.66
2023-01-11T06:47:30.273Z,-14.58
2023-01-11T06:52:57.000Z,-14.75
2023-01-11T06:58:18.847Z,-14.57
2023-01-11T07:03:42.289Z,-14.65
2023-01-11T07:09:15.619Z,-14.30
2023-01-11T07:14:42.126Z,-14.23
2023-01-11T07:20:23.292Z,-14.31
2023-01-11T07:26:04.071Z,-14.25
2023-01-11T07:31:42.808Z,-14.14
2023-01-11T07:37:28.527Z,-14.15
2023-01-11T07:43:25.336Z,-14.10
2023-01-11T07:48:50.583Z,-13.97
2023-01-11T07:54:16.219Z,-14.00
2023-01-11T07:59:46.623Z,-13.82
2023-01-11T08:05:21.889Z,-13.85
2023-01-11T08:11:13.726Z,-13.70
2023-01-11T08:16:44.954Z,-13.54
2023-01-11T08:22:19.785Z,-13.53
2023-01-11T08:28:01.953Z,-13.39
2023-01-11T08:33:36.365Z,-13.44
2023-01-11T08:39:16.304Z,-13.23
2023-01-11T08:44:46.345Z,-13.27
2023-01-11T08:50:18.810Z,-13.31
2023-01-11T08:56:04.742Z,-13.25
2023-01-11T09:01:41.605Z,-13.02
2023-01-11T09:07:07.722Z,-12.97
2023-01-11T09:12:29.795Z,-13.02
2023-01-11T09:17:53.409Z,-12.90
2023-01-11T09:23:15.465Z,-13.01
2023-01-11T09:28:37.474Z,-12.99
2023-01-11T09:33:59.615Z,-13.04
2023-01-11T09:39:24.963Z,-12.95
2023-01-11T09:45:05.975Z,-13.12
2023-01-11T09:50:33.514Z,-13.09
2023-01-11T09:56:00.086Z,-13.02
2023-01-11T10:01:38.855Z,-12.67
2023-01-11T10:07:17.785Z,-12.65
2023-01-11T10:26:00.286Z,-12.76
2023-01-11T10:31:51.278Z,-12.71
2023-01-11T10:37:44.763Z,-12.66
2023-01-11T10:43:17.608Z,-12.59
2023-01-11T10:48:45.866Z,-12.54
2023-01-11T11:01:04.739Z,-12.43
2023-01-11T11:07:03.612Z,-12.42
2023-01-11T11:12:31.684Z,-12.42
2023-01-11T11:17:55.231Z,-12.35
2023-01-11T11:23:26.019Z,-12.29
2023-01-11T11:29:09.202Z,-12.36
2023-01-11T11:34:31.504Z,-12.36
2023-01-11T11:39:54.705Z,-12.25
2023-01-11T11:45:17.908Z,-12.37
2023-01-11T11:50:45.229Z,-12.36
2023-01-11T11:56:22.341Z,-12.25
2023-01-11T12:01:47.797Z,-12.23
2023-01-11T12:07:31.521Z,-12.21
2023-01-11T12:13:04.721Z,-12.23
2023-01-11T12:18:37.008Z,-12.27
2023-01-11T12:24:39.678Z,-12.20
2023-01-11T12:30:22.208Z,-12.08
2023-01-11T12:36:24.262Z,-12.10
2023-01-11T12:42:20.205Z,-12.10
2023-01-11T12:48:34.765Z,-12.08
2023-01-11T12:54:30.804Z,-12.11
2023-01-11T13:00:17.829Z,-12.11
2023-01-11T13:12:17.156Z,-11.99
2023-01-11T13:18:14.695Z,-11.97
2023-01-11T13:23:53.827Z,-12.13
2023-01-11T13:29:28.282Z,-12.14
2023-01-11T13:34:56.294Z,-12.09
2023-01-11T13:40:34.629Z,-11.94
2023-01-11T13:46:06.528Z,-11.97
2023-01-11T13:51:38.341Z,-11.88
2023-01-11T13:57:07.796Z,-11.88
2023-01-11T14:02:43.177Z,-11.76
2023-01-11T14:08:04.719Z,-11.73
2023-01-11T14:14:05.762Z,-11.71
2023-01-11T14:20:04.816Z,-11.69
2023-01-11T14:25:45.402Z,-11.68
2023-01-11T14:31:32.294Z,-11.66
2023-01-11T14:37:18.671Z,-11.64
2023-01-11T14:43:13.532Z,-11.63
2023-01-11T14:48:49.142Z,-11.66
2023-01-11T14:54:34.802Z,-11.63
2023-01-11T14:59:56.692Z,-11.62
2023-01-11T15:05:33.388Z,-11.58
2023-01-11T15:11:05.847Z,-11.60
2023-01-11T15:17:14.983Z,-11.57
2023-01-11T15:22:37.891Z,-11.50
2023-01-11T15:28:04.217Z,-11.46
2023-01-11T15:33:26.106Z,-11.43
2023-01-11T15:39:03.618Z,-11.47
2023-01-11T15:44:49.684Z,-11.35
2023-01-11T15:50:49.374Z,-11.32
2023-01-11T15:56:29.803Z,-11.29
2023-01-11T16:01:54.273Z,-11.32
2023-01-11T16:07:50.065Z,-11.26
2023-01-11T16:13:20.927Z,-11.24
2023-01-11T16:18:53.019Z,-11.27
2023-01-11T16:24:21.581Z,-11.38
2023-01-11T16:29:50.813Z,-11.27
2023-01-11T16:35:25.667Z,-11.28
2023-01-11T16:40:53.826Z,-11.23
2023-01-11T16:46:53.963Z,-11.25
2023-01-11T16:52:28.059Z,-11.26
2023-01-11T16:57:54.318Z,-11.28
2023-01-11T17:03:46.180Z,-11.33
2023-01-11T17:09:16.329Z,-11.38
2023-01-11T17:15:06.451Z,-11.38
2023-01-11T17:20:31.079Z,-11.30
2023-01-11T17:25:58.302Z,-11.43
2023-01-11T17:31:40.498Z,-11.44
2023-01-11T17:37:11.125Z,-11.33
2023-01-11T17:42:54.631Z,-11.42
2023-01-11T17:48:22.027Z,-11.37
2023-01-11T17:53:52.805Z,-11.42
2023-01-11T17:59:17.406Z,-11.40
2023-01-11T18:04:42.285Z,-11.24
2023-01-11T18:10:30.489Z,-11.22
2023-01-11T18:15:52.844Z,-11.23
2023-01-11T18:21:26.695Z,-11.27
2023-01-11T18:26:50.860Z,-11.23
2023-01-11T18:32:14.831Z,-11.32
2023-01-11T18:37:38.113Z,-11.24
2023-01-11T18:43:00.111Z,-11.41
2023-01-11T18:48:22.404Z,-11.23
2023-01-11T18:53:44.487Z,-11.32
2023-01-11T18:59:06.463Z,-11.27
2023-01-11T19:04:28.382Z,-11.26
2023-01-11T19:09:51.099Z,-11.32
2023-01-11T19:15:17.321Z,-11.39
2023-01-11T19:20:43.610Z,-11.41
2023-01-11T19:26:26.252Z,-11.28
2023-01-11T19:32:02.485Z,-11.40
2023-01-11T19:37:37.453Z,-11.38
2023-01-11T19:43:07.715Z,-11.41
2023-01-11T19:48:35.635Z,-11.24
2023-01-11T19:53:59.841Z,-11.45
2023-01-11T19:59:32.433Z,-11.23
2023-01-11T20:04:57.668Z,-11.34
2023-01-11T20:10:24.782Z,-11.35
2023-01-11T20:15:53.329Z,-11.37
2023-01-11T20:21:16.132Z,-11.45
2023-01-11T20:26:41.389Z,-11.38
2023-01-11T20:32:27.865Z,-11.39
2023-01-11T20:37:52.474Z,-11.39
2023-01-11T20:43:30.569Z,-11.22
2023-01-11T20:48:59.680Z,-11.36
2023-01-11T20:54:30.344Z,-11.29
2023-01-11T21:00:00.174Z,-11.16
2023-01-11T21:06:13.607Z,-11.40
2023-01-11T21:16:59.314Z,-11.11
2023-01-11T21:22:21.662Z,-11.13
2023-01-11T21:27:43.550Z,-11.16
2023-01-11T21:33:05.823Z,-11.16
2023-01-11T21:38:27.491Z,-11.20
2023-01-11T21:43:53.003Z,-11.09
2023-01-11T21:49:15.964Z,-11.06
2023-01-11T21:54:38.299Z,-11.06
2023-01-11T22:00:00.532Z,-11.06
2023-01-11T22:05:24.279Z,-11.02
2023-01-11T22:11:00.259Z,-11.09
2023-01-11T22:16:22.480Z,-11.09
2023-01-11T22:21:45.320Z,-11.04
2023-01-11T22:27:07.822Z,-11.00
2023-01-11T22:32:32.993Z,-11.09
2023-01-11T22:37:54.721Z,-11.02
2023-01-11T22:43:16.599Z,-11.15
2023-01-11T22:48:38.914Z,-10.98
2023-01-11T22:54:00.780Z,-11.04
2023-01-11T22:59:22.471Z,-11.04
2023-01-11T23:04:44.548Z,-11.09
2023-01-11T23:10:09.062Z,-10.94
2023-01-11T23:15:31.400Z,-11.09
2023-01-11T23:20:53.746Z,-11.05
2023-01-11T23:26:18.722Z,-10.91
2023-01-11T23:31:40.645Z,-11.00
2023-01-11T23:37:02.434Z,-10.93
2023-01-11T23:42:27.573Z,-10.93
2023-01-11T23:47:50.083Z,-10.85
2023-01-11T23:53:12.013Z,-11.03
2023-01-11T23:58:34.041Z,-11.02
